Time;durP1;ratioP1;P1;durP2;ratioP2;P2;SDS_P1;SDS_P2;PMS_P1;PMS_P2;Temp;Humidity;BMP_temperature;BMP_pressure;BME280_temperature;BME280_humidity;BME280_pressure;Samples;Min_cycle;Max_cycle;Signal;HPM_P1;HPM_P2
2022/03/31 00:00:38;;;;;;;4.50;2.10;;;4.80;99.90;;;;;;4996800;28;20160;-88
2022/03/31 00:03:13;;;;;;;5.87;2.40;;;4.80;99.90;;;;;;4996460;28;20222;-88
2022/03/31 00:05:39;;;;;;;7.83;2.53;;;4.70;99.90;;;;;;4996663;28;20171;-88
2022/03/31 00:08:10;;;;;;;8.57;2.20;;;4.70;99.90;;;;;;4996581;28;20176;-87
2022/03/31 00:10:39;;;;;;;4.40;2.13;;;4.80;99.90;;;;;;4996434;28;20223;-87
2022/03/31 00:13:07;;;;;;;4.27;2.33;;;4.80;99.90;;;;;;4996448;28;20611;-88
2022/03/31 00:15:34;;;;;;;5.90;2.53;;;4.70;99.90;;;;;;4996408;28;20194;-88
2022/03/31 00:18:04;;;;;;;6.73;2.20;;;4.70;99.90;;;;;;4995205;28;20523;-88
2022/03/31 00:20:30;;;;;;;5.00;2.40;;;4.70;99.90;;;;;;4996140;28;20614;-88
2022/03/31 00:22:55;;;;;;;4.77;2.13;;;4.70;99.90;;;;;;4996324;28;20188;-88
2022/03/31 00:25:26;;;;;;;8.90;2.43;;;4.80;99.90;;;;;;4996297;28;20211;-89
2022/03/31 00:27:52;;;;;;;6.73;2.57;;;4.70;99.90;;;;;;4996135;28;20520;-88
2022/03/31 00:30:19;;;;;;;5.93;2.60;;;4.70;99.90;;;;;;4996150;28;20180;-87
2022/03/31 00:32:44;;;;;;;5.20;2.23;;;4.70;99.90;;;;;;4996339;28;20196;-88
2022/03/31 00:35:13;;;;;;;4.53;2.13;;;4.70;99.90;;;;;;4996168;28;20254;-88
2022/03/31 00:37:44;;;;;;;7.23;2.60;;;4.70;99.90;;;;;;4996270;28;20259;-88
2022/03/31 00:40:12;;;;;;;7.27;2.13;;;4.70;99.90;;;;;;4996095;28;20654;-88
2022/03/31 00:42:46;;;;;;;6.33;2.50;;;4.70;99.90;;;;;;4995798;28;20282;-87
2022/03/31 00:45:16;;;;;;;6.13;2.30;;;4.70;99.90;;;;;;4996223;28;20171;-88
2022/03/31 00:47:42;;;;;;;5.40;2.60;;;4.70;99.90;;;;;;4994954;28;20176;-87
2022/03/31 00:50:13;;;;;;;6.00;2.10;;;4.60;99.90;;;;;;4995667;28;20258;-88
2022/03/31 00:52:40;;;;;;;3.17;2.00;;;4.60;99.90;;;;;;4995467;28;20239;-87
2022/03/31 00:55:09;;;;;;;5.27;2.77;;;4.60;99.90;;;;;;4995625;28;20175;-87
2022/03/31 00:57:35;;;;;;;5.50;2.37;;;4.60;99.90;;;;;;4996047;28;20160;-87
2022/03/31 01:00:03;;;;;;;7.37;2.47;;;4.60;99.90;;;;;;4995704;28;20172;-87
2022/03/31 01:02:32;;;;;;;5.83;2.27;;;4.50;99.90;;;;;;4995586;28;20243;-87
2022/03/31 01:05:02;;;;;;;3.33;2.20;;;4.50;99.90;;;;;;4995588;28;20214;-88
2022/03/31 01:07:28;;;;;;;6.93;2.20;;;4.50;99.90;;;;;;4995513;28;20526;-87
2022/03/31 01:09:56;;;;;;;7.43;2.30;;;4.40;99.90;;;;;;4995737;28;20184;-86
2022/03/31 01:12:23;;;;;;;6.37;2.40;;;4.40;99.90;;;;;;4995350;28;20714;-87
2022/03/31 01:15:06;;;;;;;4.63;2.23;;;4.30;99.90;;;;;;4995627;28;20176;-88
2022/03/31 01:17:35;;;;;;;4.87;2.33;;;4.30;99.90;;;;;;4995501;28;20635;-88
2022/03/31 01:20:03;;;;;;;3.33;2.00;;;4.20;99.90;;;;;;4995136;28;20237;-89
2022/03/31 01:22:31;;;;;;;5.10;2.30;;;4.20;99.90;;;;;;4995468;28;20175;-87
2022/03/31 01:24:58;;;;;;;7.13;2.13;;;4.10;99.90;;;;;;4995460;28;20179;-88
2022/03/31 01:27:28;;;;;;;5.73;2.10;;;4.10;99.90;;;;;;4995377;28;20179;-89
2022/03/31 01:29:54;;;;;;;6.87;2.30;;;4.10;99.90;;;;;;4996923;28;20193;-87
2022/03/31 01:32:21;;;;;;;11.07;2.60;;;4.00;99.90;;;;;;4999241;28;20215;-87
2022/03/31 01:34:47;;;;;;;4.07;2.40;;;4.00;99.90;;;;;;4998970;28;20585;-88
2022/03/31 01:37:13;;;;;;;4.13;2.30;;;3.90;99.90;;;;;;4999726;28;20607;-86
2022/03/31 01:39:40;;;;;;;6.27;2.50;;;3.90;99.90;;;;;;4999268;28;20184;-88
2022/03/31 01:42:06;;;;;;;7.37;2.17;;;3.90;99.90;;;;;;4999084;28;20182;-88
2022/03/31 01:44:33;;;;;;;6.67;2.30;;;3.80;99.90;;;;;;4999219;28;20347;-88
2022/03/31 01:46:59;;;;;;;6.90;2.70;;;3.80;99.90;;;;;;4999205;28;20169;-87
2022/03/31 01:49:24;;;;;;;4.00;2.20;;;3.80;99.90;;;;;;4998865;28;20182;-88
2022/03/31 01:51:50;;;;;;;4.93;2.40;;;3.80;99.90;;;;;;4999018;28;20211;-87
2022/03/31 01:54:16;;;;;;;5.83;2.63;;;3.80;99.90;;;;;;4999225;28;20211;-86
2022/03/31 01:56:44;;;;;;;5.70;2.50;;;3.70;99.90;;;;;;4999287;28;20641;-88
2022/03/31 01:59:11;;;;;;;7.07;2.80;;;3.70;99.90;;;;;;4999134;28;20181;-88
2022/03/31 02:01:36;;;;;;;6.33;3.30;;;3.80;99.90;;;;;;4998633;28;20633;-87
2022/03/31 02:04:03;;;;;;;8.47;3.07;;;3.70;99.90;;;;;;4997566;28;20183;-88
2022/03/31 02:06:29;;;;;;;6.57;3.43;;;3.70;99.90;;;;;;5014144;28;20616;-88
2022/03/31 02:08:56;;;;;;;8.67;3.30;;;3.70;99.90;;;;;;4998637;28;20174;-89
2022/03/31 02:11:21;;;;;;;8.60;3.53;;;3.70;99.90;;;;;;4998608;28;20217;-88
2022/03/31 02:13:47;;;;;;;9.23;3.23;;;3.70;99.90;;;;;;4998682;28;20178;-86
2022/03/31 02:16:14;;;;;;;6.47;3.17;;;3.70;99.90;;;;;;4998332;28;20178;-87
2022/03/31 02:18:40;;;;;;;7.37;3.93;;;3.70;99.90;;;;;;4998584;28;20206;-88
2022/03/31 02:21:06;;;;;;;6.63;3.30;;;3.70;99.90;;;;;;4998269;28;20188;-87
2022/03/31 02:23:32;;;;;;;6.10;3.60;;;3.70;99.90;;;;;;4998369;28;20187;-88
2022/03/31 02:25:57;;;;;;;8.37;3.47;;;3.60;99.90;;;;;;4998575;28;20184;-86
2022/03/31 02:28:23;;;;;;;6.73;3.73;;;3.60;99.90;;;;;;4998463;28;20165;-88
2022/03/31 02:30:49;;;;;;;9.87;3.87;;;3.60;99.90;;;;;;4998102;28;20245;-86
2022/03/31 02:33:14;;;;;;;10.60;3.90;;;3.60;99.90;;;;;;4998164;28;20232;-87
2022/03/31 02:35:40;;;;;;;19.33;4.77;;;3.60;99.90;;;;;;4997946;28;20259;-86
2022/03/31 02:38:06;;;;;;;10.20;4.10;;;3.60;99.90;;;;;;4998136;28;20191;-87
2022/03/31 02:40:32;;;;;;;9.90;3.67;;;3.60;99.90;;;;;;4998222;28;20183;-87
2022/03/31 02:42:57;;;;;;;6.77;3.53;;;3.60;99.90;;;;;;4996955;28;20203;-88
2022/03/31 02:45:23;;;;;;;6.43;3.30;;;3.50;99.90;;;;;;4997911;28;20179;-86
2022/03/31 02:47:49;;;;;;;6.67;3.23;;;3.50;99.90;;;;;;4998226;28;20263;-87
2022/03/31 02:50:17;;;;;;;8.63;3.27;;;3.50;99.90;;;;;;4997781;28;20244;-87
2022/03/31 02:55:28;;;;;;;6.27;3.57;;;3.40;99.90;;;;;;4998378;28;20172;-85
2022/03/31 02:58:00;;;;;;;5.90;4.03;;;3.40;99.90;;;;;;4997741;28;20172;-88
2022/03/31 03:00:27;;;;;;;6.03;4.20;;;3.30;99.90;;;;;;4996965;28;20178;-87
2022/03/31 03:02:53;;;;;;;8.27;4.30;;;3.30;99.90;;;;;;4996527;28;20176;-87
2022/03/31 03:05:20;;;;;;;8.30;4.70;;;3.30;99.90;;;;;;4997463;28;20502;-89
2022/03/31 03:07:46;;;;;;;8.93;4.60;;;3.30;99.90;;;;;;4997712;28;20543;-87
2022/03/31 03:10:13;;;;;;;8.87;4.77;;;3.30;99.90;;;;;;4997541;28;20173;-86
2022/03/31 03:12:41;;;;;;;13.07;4.10;;;3.30;99.90;;;;;;4997396;28;20211;-87
2022/03/31 03:15:10;;;;;;;10.50;4.50;;;3.30;99.90;;;;;;4997622;28;20213;-87
2022/03/31 03:17:41;;;;;;;7.87;4.33;;;3.30;99.90;;;;;;4997679;28;20259;-87
2022/03/31 03:20:08;;;;;;;14.83;4.67;;;3.30;99.90;;;;;;4997073;28;20178;-86
2022/03/31 03:22:34;;;;;;;8.17;3.93;;;3.30;99.90;;;;;;4997306;28;20183;-88
2022/03/31 03:25:00;;;;;;;8.33;3.63;;;3.30;99.90;;;;;;4997493;28;20179;-89
2022/03/31 03:27:26;;;;;;;8.43;4.87;;;3.30;99.90;;;;;;4997560;28;20179;-88
2022/03/31 03:29:52;;;;;;;8.37;4.57;;;3.30;99.90;;;;;;4997338;28;20188;-87
2022/03/31 03:32:18;;;;;;;8.57;4.03;;;3.30;99.90;;;;;;4997414;28;20219;-88
2022/03/31 03:34:44;;;;;;;11.23;6.50;;;3.30;99.90;;;;;;4996990;28;20172;-88
2022/03/31 03:37:10;;;;;;;9.67;5.10;;;3.30;99.90;;;;;;4996116;28;20262;-87
2022/03/31 03:39:36;;;;;;;12.63;6.87;;;3.30;99.90;;;;;;4997519;28;20213;-87
2022/03/31 03:42:02;;;;;;;10.73;6.73;;;3.30;99.90;;;;;;5521140;22;20677;-87
2022/03/31 03:44:28;;;;;;;14.60;6.73;;;3.40;99.90;;;;;;4981060;28;20200;-88
2022/03/31 03:46:53;;;;;;;11.47;6.30;;;3.40;99.90;;;;;;4977450;28;20532;-86
2022/03/31 03:49:19;;;;;;;8.63;5.27;;;3.50;99.90;;;;;;4977193;28;20176;-86
2022/03/31 03:51:45;;;;;;;12.90;4.97;;;3.50;99.90;;;;;;4976802;28;20240;-86
2022/03/31 03:54:11;;;;;;;8.30;4.57;;;3.50;99.90;;;;;;4990519;28;20609;-87
2022/03/31 03:56:38;;;;;;;7.43;4.10;;;3.50;99.90;;;;;;4996684;28;20171;-88
2022/03/31 03:59:04;;;;;;;8.50;4.03;;;3.50;99.90;;;;;;4996678;28;20187;-86
2022/03/31 04:01:30;;;;;;;10.53;4.37;;;3.50;99.90;;;;;;4996383;28;20187;-87
2022/03/31 04:03:57;;;;;;;6.00;3.73;;;3.50;99.90;;;;;;4995373;28;20635;-86
2022/03/31 04:06:23;;;;;;;14.10;3.60;;;3.50;99.90;;;;;;4996358;28;20166;-87
2022/03/31 04:08:49;;;;;;;8.43;3.57;;;3.50;99.90;;;;;;4996348;28;20180;-87
2022/03/31 04:11:15;;;;;;;8.43;3.53;;;3.50;99.90;;;;;;4996089;28;20287;-87
2022/03/31 04:13:40;;;;;;;10.37;4.00;;;3.50;99.90;;;;;;4996326;28;20486;-87
2022/03/31 04:16:06;;;;;;;6.57;3.23;;;3.50;99.90;;;;;;4995347;28;20188;-88
2022/03/31 04:18:32;;;;;;;6.63;3.53;;;3.50;99.90;;;;;;4996495;28;20601;-87
2022/03/31 04:21:01;;;;;;;8.50;4.10;;;3.50;99.90;;;;;;4996003;28;20218;-88
2022/03/31 04:23:27;;;;;;;7.53;3.53;;;3.50;99.90;;;;;;4996489;28;20196;-85
2022/03/31 04:25:53;;;;;;;7.33;3.37;;;3.60;99.90;;;;;;4996511;28;20183;-87
2022/03/31 04:28:18;;;;;;;5.07;3.03;;;3.60;99.90;;;;;;4996370;28;20517;-86
2022/03/31 04:30:44;;;;;;;5.87;3.20;;;3.60;99.90;;;;;;4995993;28;20221;-87
2022/03/31 04:33:10;;;;;;;7.57;3.77;;;3.60;99.90;;;;;;4996174;28;20183;-86
2022/03/31 04:35:36;;;;;;;9.60;3.40;;;3.50;99.90;;;;;;4995949;28;20166;-86
2022/03/31 04:38:03;;;;;;;12.03;3.20;;;3.60;99.90;;;;;;4995910;28;20638;-87
2022/03/31 04:40:29;;;;;;;4.63;3.10;;;3.50;99.90;;;;;;4996034;28;20188;-87
2022/03/31 04:42:57;;;;;;;6.90;3.30;;;3.50;99.90;;;;;;4994723;28;20231;-88
2022/03/31 04:45:22;;;;;;;6.97;3.10;;;3.50;99.90;;;;;;4995863;28;20242;-87
2022/03/31 04:47:48;;;;;;;5.33;3.27;;;3.50;99.90;;;;;;4995789;28;20214;-86
2022/03/31 04:50:14;;;;;;;8.17;3.80;;;3.50;99.90;;;;;;4994353;28;20178;-83
2022/03/31 04:52:41;;;;;;;8.90;4.00;;;3.50;99.90;;;;;;4994253;28;20238;-86
2022/03/31 04:55:07;;;;;;;9.47;4.00;;;3.50;99.90;;;;;;4994671;28;20178;-87
2022/03/31 04:57:33;;;;;;;10.37;3.60;;;3.50;99.90;;;;;;4994739;28;20189;-86
2022/03/31 04:59:59;;;;;;;8.10;3.37;;;3.50;99.90;;;;;;4994598;28;20193;-87
2022/03/31 05:02:24;;;;;;;8.53;3.47;;;3.50;99.90;;;;;;4994652;28;20178;-88
2022/03/31 05:04:50;;;;;;;9.17;4.10;;;3.50;99.90;;;;;;4994593;28;20225;-85
2022/03/31 05:07:16;;;;;;;7.13;3.50;;;3.40;99.90;;;;;;4995514;28;20615;-88
2022/03/31 05:09:41;;;;;;;7.97;3.63;;;3.50;99.90;;;;;;4995598;28;20193;-86
2022/03/31 05:12:08;;;;;;;11.70;4.07;;;3.50;99.90;;;;;;4995388;28;20207;-86
2022/03/31 05:14:35;;;;;;;9.60;3.87;;;3.40;99.90;;;;;;4995679;28;20179;-87
2022/03/31 05:17:01;;;;;;;5.83;3.67;;;3.40;99.90;;;;;;4995665;28;20170;-86
2022/03/31 05:19:27;;;;;;;7.63;3.83;;;3.40;99.90;;;;;;4995345;28;20193;-86
2022/03/31 05:21:53;;;;;;;10.50;4.30;;;3.40;99.90;;;;;;4995230;28;20222;-88
2022/03/31 05:24:19;;;;;;;7.07;4.60;;;3.40;99.90;;;;;;4995775;28;20211;-88
2022/03/31 05:26:45;;;;;;;9.97;4.50;;;3.40;99.90;;;;;;4994390;28;20227;-87
2022/03/31 05:29:13;;;;;;;7.53;4.23;;;3.40;99.90;;;;;;4995226;28;20168;-87
2022/03/31 05:31:39;;;;;;;10.70;4.90;;;3.30;99.90;;;;;;4997285;28;20239;-88
2022/03/31 05:34:06;;;;;;;9.93;5.00;;;3.30;99.90;;;;;;4993018;28;20571;-84
2022/03/31 05:36:32;;;;;;;8.20;5.37;;;3.30;99.90;;;;;;4992444;28;20188;-83
2022/03/31 05:38:57;;;;;;;12.07;5.17;;;3.30;99.90;;;;;;4992592;28;20190;-84
2022/03/31 05:41:26;;;;;;;11.87;5.10;;;3.30;99.90;;;;;;4993563;28;20216;-86
2022/03/31 05:43:52;;;;;;;7.93;5.60;;;3.30;99.90;;;;;;4995104;28;20255;-85
2022/03/31 05:46:20;;;;;;;8.97;5.33;;;3.30;99.90;;;;;;4994883;28;20615;-85
2022/03/31 05:48:45;;;;;;;13.80;5.70;;;3.20;99.90;;;;;;4994884;28;20208;-84
2022/03/31 05:51:12;;;;;;;11.63;5.33;;;3.20;99.90;;;;;;4994425;28;20232;-84
2022/03/31 05:53:38;;;;;;;10.13;6.40;;;3.20;99.90;;;;;;4994783;28;20242;-83
2022/03/31 05:56:04;;;;;;;12.83;6.13;;;3.20;99.90;;;;;;4995054;28;20172;-85
2022/03/31 05:58:29;;;;;;;10.03;5.80;;;3.20;99.90;;;;;;4995078;28;20497;-84
2022/03/31 06:00:55;;;;;;;9.70;6.30;;;3.20;99.90;;;;;;4994792;28;20212;-85
2022/03/31 06:03:23;;;;;;;11.77;5.87;;;3.20;99.90;;;;;;4993342;28;20184;-83
2022/03/31 06:05:49;;;;;;;12.10;5.37;;;3.20;99.90;;;;;;4993064;28;20215;-83
2022/03/31 06:08:17;;;;;;;12.50;6.43;;;3.20;99.90;;;;;;4993131;28;20191;-79
2022/03/31 06:10:46;;;;;;;11.83;6.10;;;3.20;99.90;;;;;;4993017;28;20608;-80
2022/03/31 06:13:12;;;;;;;13.77;5.93;;;3.20;99.90;;;;;;4994602;28;20186;-84
2022/03/31 06:15:38;;;;;;;10.20;6.13;;;3.20;99.90;;;;;;4994372;28;20670;-84
2022/03/31 06:18:04;;;;;;;10.00;5.90;;;3.20;99.90;;;;;;4998152;28;20200;-85
2022/03/31 06:20:34;;;;;;;10.67;5.70;;;3.20;99.90;;;;;;4998191;28;20200;-84
2022/03/31 06:23:00;;;;;;;11.43;5.87;;;3.20;99.90;;;;;;4997954;28;20497;-85
2022/03/31 06:25:26;;;;;;;9.93;5.77;;;3.20;99.90;;;;;;4998109;28;20643;-87
2022/03/31 06:27:52;;;;;;;12.97;6.40;;;3.20;99.90;;;;;;4998084;28;20200;-85
2022/03/31 06:30:18;;;;;;;13.03;6.47;;;3.20;99.90;;;;;;4997850;28;20172;-84
2022/03/31 06:32:44;;;;;;;11.27;6.17;;;3.20;99.90;;;;;;4997589;28;20599;-81
2022/03/31 06:35:14;;;;;;;10.77;6.17;;;3.30;99.90;;;;;;4997598;28;20182;-83
2022/03/31 06:37:41;;;;;;;11.53;6.30;;;3.30;99.90;;;;;;4996519;28;20178;-83
2022/03/31 06:40:12;;;;;;;11.87;6.27;;;3.40;99.90;;;;;;4997702;28;20193;-85
2022/03/31 06:42:39;;;;;;;13.60;6.07;;;3.50;99.90;;;;;;4997520;28;20325;-82
2022/03/31 06:45:08;;;;;;;16.90;6.67;;;3.50;99.90;;;;;;4980618;28;20219;-85
2022/03/31 06:47:35;;;;;;;15.30;6.27;;;3.50;99.90;;;;;;4997725;28;20172;-84
2022/03/31 06:50:01;;;;;;;12.30;7.07;;;3.50;99.90;;;;;;4997769;28;20501;-83
2022/03/31 06:52:26;;;;;;;11.07;6.83;;;3.40;99.90;;;;;;4997468;28;20212;-80
2022/03/31 06:54:52;;;;;;;11.37;6.40;;;3.50;99.90;;;;;;4997518;28;20673;-86
2022/03/31 06:57:18;;;;;;;8.70;5.73;;;3.60;99.90;;;;;;4996893;28;20179;-86
2022/03/31 06:59:43;;;;;;;10.43;6.03;;;3.60;99.90;;;;;;4997508;28;20180;-86
2022/03/31 07:02:09;;;;;;;8.73;5.80;;;3.70;99.90;;;;;;4997290;28;20265;-82
2022/03/31 07:04:35;;;;;;;14.97;5.80;;;3.60;99.90;;;;;;4997265;28;20232;-84
2022/03/31 07:07:00;;;;;;;10.03;5.90;;;3.70;99.90;;;;;;4996203;28;20211;-87
2022/03/31 07:09:27;;;;;;;13.17;6.33;;;3.70;99.90;;;;;;4997537;28;20187;-85
2022/03/31 07:11:53;;;;;;;8.80;5.67;;;3.70;99.90;;;;;;5007920;28;20216;-88
2022/03/31 07:14:20;;;;;;;8.50;5.87;;;3.70;99.90;;;;;;5016165;28;20178;-87
2022/03/31 07:16:46;;;;;;;10.83;6.03;;;3.70;99.90;;;;;;5006509;28;20512;-87
2022/03/31 07:19:12;;;;;;;8.37;5.93;;;3.70;99.90;;;;;;4986278;28;20180;-86
2022/03/31 07:21:38;;;;;;;11.57;6.30;;;3.70;99.90;;;;;;4994204;28;20750;-86
2022/03/31 07:24:04;;;;;;;10.47;5.67;;;3.80;99.90;;;;;;4995418;28;20239;-83
2022/03/31 07:26:30;;;;;;;8.97;6.00;;;3.70;99.90;;;;;;4996200;28;20199;-87
2022/03/31 07:28:56;;;;;;;10.77;6.37;;;3.70;99.90;;;;;;4995950;28;20193;-86
2022/03/31 07:31:28;;;;;;;9.23;6.10;;;3.70;99.90;;;;;;4996352;28;20213;-88
2022/03/31 07:33:54;;;;;;;9.90;6.37;;;3.70;99.90;;;;;;4996650;28;20180;-88
2022/03/31 07:36:20;;;;;;;12.80;6.50;;;3.70;99.90;;;;;;4996765;28;20603;-89
2022/03/31 07:38:45;;;;;;;9.43;5.90;;;3.70;99.90;;;;;;4996749;28;20168;-87
2022/03/31 07:41:12;;;;;;;9.73;5.77;;;3.70;99.90;;;;;;4996084;28;20184;-86
2022/03/31 07:43:38;;;;;;;10.90;6.27;;;3.70;99.90;;;;;;4995048;28;20200;-87
2022/03/31 07:46:05;;;;;;;11.47;5.87;;;3.90;99.90;;;;;;4996161;28;20253;-81
2022/03/31 07:48:31;;;;;;;13.07;5.73;;;3.80;99.90;;;;;;4996084;28;20160;-84
2022/03/31 07:50:59;;;;;;;10.93;5.37;;;3.90;99.90;;;;;;4996248;28;20191;-87
2022/03/31 07:53:32;;;;;;;10.47;5.80;;;4.00;99.90;;;;;;4996429;28;20270;-87
2022/03/31 07:55:59;;;;;;;6.77;5.10;;;4.10;99.90;;;;;;4996782;28;20167;-87
2022/03/31 07:58:25;;;;;;;9.23;5.13;;;4.00;99.90;;;;;;4996302;28;20168;-87
2022/03/31 08:00:52;;;;;;;8.53;5.00;;;4.10;99.90;;;;;;4995679;28;20231;-88
2022/03/31 08:03:18;;;;;;;8.43;5.60;;;4.10;99.90;;;;;;5010725;28;20187;-85
2022/03/31 08:05:45;;;;;;;7.50;5.10;;;4.00;99.90;;;;;;4994882;28;20187;-86
2022/03/31 08:08:11;;;;;;;10.50;5.40;;;4.00;99.90;;;;;;4995727;28;20693;-85
2022/03/31 08:10:37;;;;;;;14.20;5.43;;;4.00;99.90;;;;;;4996021;28;20176;-86
2022/03/31 08:13:03;;;;;;;8.50;5.53;;;4.10;99.90;;;;;;5011160;28;20942;-88
2022/03/31 08:15:29;;;;;;;7.37;4.93;;;4.10;99.90;;;;;;4995779;28;20262;-86
2022/03/31 08:17:54;;;;;;;8.87;5.20;;;4.20;99.90;;;;;;4995484;28;20275;-86
2022/03/31 08:20:21;;;;;;;8.17;4.60;;;4.20;99.90;;;;;;4995707;28;20598;-86
2022/03/31 08:22:48;;;;;;;7.37;4.63;;;4.10;99.90;;;;;;4995527;28;20174;-85
2022/03/31 08:25:14;;;;;;;8.00;4.57;;;4.00;99.90;;;;;;4995472;28;20188;-86
2022/03/31 08:27:41;;;;;;;8.83;4.77;;;4.10;99.90;;;;;;4994469;28;20557;-87
2022/03/31 08:30:10;;;;;;;6.53;4.20;;;4.20;99.90;;;;;;4995642;28;20199;-86
2022/03/31 08:32:39;;;;;;;8.60;4.93;;;4.30;99.90;;;;;;4995422;28;20724;-86
2022/03/31 08:35:06;;;;;;;9.33;4.53;;;4.40;99.90;;;;;;4994290;28;20186;-85
2022/03/31 08:37:32;;;;;;;8.30;4.73;;;4.30;99.90;;;;;;4995281;28;20233;-86
2022/03/31 08:39:58;;;;;;;6.87;4.60;;;4.20;99.90;;;;;;4994197;28;20183;-84
2022/03/31 08:42:24;;;;;;;10.03;4.90;;;4.20;99.90;;;;;;4995104;28;20231;-87
2022/03/31 08:44:53;;;;;;;7.43;4.73;;;4.20;99.90;;;;;;4995438;28;20510;-87
2022/03/31 08:47:20;;;;;;;10.37;5.17;;;4.30;99.90;;;;;;4994865;28;20172;-87
2022/03/31 08:49:50;;;;;;;7.47;4.50;;;4.40;99.90;;;;;;4995229;28;20175;-86
2022/03/31 08:52:15;;;;;;;5.67;3.87;;;4.50;99.90;;;;;;4994842;28;20231;-85
2022/03/31 08:54:42;;;;;;;10.03;4.60;;;4.60;99.90;;;;;;4995398;28;20653;-89
2022/03/31 08:57:08;;;;;;;6.93;4.10;;;4.60;99.90;;;;;;4995107;28;20262;-84
2022/03/31 08:59:33;;;;;;;9.13;4.37;;;4.70;99.90;;;;;;4994957;28;20208;-85
2022/03/31 09:01:59;;;;;;;10.83;4.20;;;4.80;99.90;;;;;;4993519;28;20184;-84
2022/03/31 09:04:25;;;;;;;6.77;4.33;;;4.80;99.90;;;;;;4995065;28;20182;-88
2022/03/31 09:07:04;;;;;;;8.77;4.10;;;4.80;99.90;;;;;;4995143;28;20261;-84
2022/03/31 09:09:31;;;;;;;8.57;4.33;;;4.80;99.90;;;;;;4995013;28;20171;-85
2022/03/31 09:11:56;;;;;;;7.20;4.40;;;4.80;99.90;;;;;;4994366;28;20204;-85
2022/03/31 09:14:30;;;;;;;7.10;4.13;;;4.90;99.90;;;;;;4994884;28;20487;-86
2022/03/31 09:16:56;;;;;;;8.43;3.70;;;5.00;99.90;;;;;;4994451;28;20202;-86
2022/03/31 09:19:22;;;;;;;12.67;4.17;;;5.10;99.90;;;;;;4993927;28;20187;-86
2022/03/31 09:21:52;;;;;;;7.07;4.40;;;5.20;99.90;;;;;;4995354;28;20188;-85
2022/03/31 09:24:22;;;;;;;8.30;4.07;;;5.10;99.90;;;;;;4995129;28;20183;-86
2022/03/31 09:26:50;;;;;;;6.97;4.33;;;5.10;99.90;;;;;;4995123;28;20182;-87
2022/03/31 09:29:20;;;;;;;9.03;4.07;;;5.20;99.90;;;;;;4995212;28;20171;-89
2022/03/31 09:31:47;;;;;;;6.63;4.10;;;5.20;99.90;;;;;;4993433;28;20239;-86
2022/03/31 09:34:13;;;;;;;6.13;4.07;;;5.30;99.90;;;;;;4993890;28;20182;-85
2022/03/31 09:36:49;;;;;;;7.57;3.53;;;5.30;99.90;;;;;;4994936;28;20182;-87
2022/03/31 09:39:17;;;;;;;7.60;3.90;;;5.40;99.90;;;;;;4995113;28;20633;-85
2022/03/31 09:41:47;;;;;;;8.03;4.17;;;5.50;99.90;;;;;;4994735;28;20235;-86
2022/03/31 09:44:22;;;;;;;7.10;4.13;;;5.60;99.90;;;;;;4995158;28;20628;-88
2022/03/31 09:46:54;;;;;;;7.93;3.80;;;5.60;99.90;;;;;;4994771;28;20180;-87
2022/03/31 09:49:25;;;;;;;8.57;4.10;;;5.60;99.90;;;;;;4990835;28;20191;-87
2022/03/31 09:51:54;;;;;;;6.77;3.77;;;5.70;99.90;;;;;;4997834;28;20218;-86
2022/03/31 09:54:26;;;;;;;8.00;3.83;;;5.70;99.90;;;;;;4998303;28;20641;-88
2022/03/31 09:56:52;;;;;;;7.17;4.10;;;5.80;99.90;;;;;;4998812;28;20156;-86
2022/03/31 09:59:18;;;;;;;8.37;4.13;;;5.80;99.90;;;;;;4998813;28;20218;-87
2022/03/31 10:01:45;;;;;;;8.93;3.97;;;5.80;99.90;;;;;;4998362;28;20180;-87
2022/03/31 10:04:12;;;;;;;7.80;3.87;;;5.90;99.90;;;;;;4998655;28;20175;-87
2022/03/31 10:06:42;;;;;;;7.50;4.20;;;6.00;99.90;;;;;;4998591;28;20206;-88
2022/03/31 10:09:10;;;;;;;7.93;3.90;;;6.00;99.90;;;;;;4998369;28;20191;-85
2022/03/31 10:11:42;;;;;;;8.13;3.93;;;6.20;99.90;;;;;;4997072;28;20212;-85
2022/03/31 10:14:35;;;;;;;7.27;4.27;;;6.30;99.90;;;;;;4998449;28;20176;-85
2022/03/31 10:17:06;;;;;;;10.63;4.13;;;6.30;99.90;;;;;;4998595;28;20180;-86
2022/03/31 10:19:36;;;;;;;10.73;4.37;;;6.30;99.90;;;;;;4998210;28;20554;-87
2022/03/31 10:24:40;;;;;;;8.33;3.80;;;6.30;99.90;;;;;;4998039;28;20183;-86
2022/03/31 10:24:57;;;;;;;6.63;3.93;;;6.20;99.90;;;;;;4998271;28;20179;-88
2022/03/31 10:27:31;;;;;;;9.83;4.60;;;6.20;99.90;;;;;;4998532;28;20168;-87
2022/03/31 10:30:16;;;;;;;11.37;4.30;;;6.10;99.90;;;;;;4998275;28;20250;-85
2022/03/31 10:32:59;;;;;;;6.73;4.03;;;6.10;99.90;;;;;;4997595;28;20231;-85
2022/03/31 10:35:36;;;;;;;13.57;3.93;;;6.10;99.90;;;;;;4997231;28;20207;-90
2022/03/31 10:38:15;;;;;;;5.93;4.03;;;6.20;99.90;;;;;;4998167;28;20172;-87
2022/03/31 10:40:42;;;;;;;9.07;4.10;;;6.30;99.90;;;;;;4998079;28;20622;-87
2022/03/31 10:43:22;;;;;;;9.07;3.87;;;6.20;99.30;;;;;;4997846;28;20752;-88
2022/03/31 10:45:48;;;;;;;8.23;4.07;;;6.30;99.90;;;;;;4997061;28;20310;-89
2022/03/31 10:48:19;;;;;;;8.03;3.97;;;6.20;99.70;;;;;;4996507;28;20219;-88
2022/03/31 10:50:59;;;;;;;6.03;3.87;;;6.20;99.60;;;;;;4996304;28;20267;-84
2022/03/31 10:53:30;;;;;;;6.93;3.70;;;6.20;99.00;;;;;;4997572;28;20641;-86
2022/03/31 10:55:57;;;;;;;4.93;3.03;;;6.30;99.40;;;;;;4996374;28;20614;-85
2022/03/31 10:58:30;;;;;;;4.30;3.50;;;6.30;98.20;;;;;;4996022;28;20184;-82
2022/03/31 11:01:03;;;;;;;5.27;3.70;;;6.30;98.00;;;;;;4997598;28;20172;-85
2022/03/31 11:03:28;;;;;;;5.77;3.50;;;6.20;98.00;;;;;;4995434;28;20219;-84
2022/03/31 11:05:59;;;;;;;5.83;3.40;;;6.10;98.40;;;;;;4997321;28;20208;-86
2022/03/31 11:08:26;;;;;;;6.33;3.20;;;6.30;99.00;;;;;;4989528;28;20180;-84
2022/03/31 11:10:53;;;;;;;6.20;3.37;;;6.40;98.90;;;;;;4994897;28;20211;-85
2022/03/31 11:13:29;;;;;;;5.83;3.47;;;6.40;98.90;;;;;;4995289;28;20278;-84
2022/03/31 11:15:56;;;;;;;10.73;3.60;;;6.40;97.90;;;;;;4994188;28;20183;-82
2022/03/31 11:18:23;;;;;;;6.40;3.23;;;6.40;98.20;;;;;;4994917;28;20598;-85
2022/03/31 11:20:56;;;;;;;5.70;3.37;;;6.50;98.70;;;;;;4995659;28;20264;-84
2022/03/31 11:23:22;;;;;;;4.67;3.57;;;6.60;98.40;;;;;;4994144;28;20200;-83
2022/03/31 11:25:48;;;;;;;5.67;3.27;;;6.60;97.60;;;;;;4993807;28;20258;-82
2022/03/31 11:28:14;;;;;;;12.50;4.20;;;6.60;97.10;;;;;;4994029;28;20536;-83
2022/03/31 11:30:41;;;;;;;6.70;3.53;;;6.70;97.50;;;;;;4995582;28;20226;-79
2022/03/31 11:33:10;;;;;;;6.63;3.33;;;6.60;97.40;;;;;;4996914;28;20492;-85
2022/03/31 11:35:37;;;;;;;5.47;3.40;;;6.50;97.40;;;;;;4996583;28;20225;-86
2022/03/31 11:38:05;;;;;;;8.90;3.40;;;6.50;97.50;;;;;;4996479;28;20187;-90
2022/03/31 11:40:37;;;;;;;12.20;3.10;;;6.50;97.50;;;;;;4995891;28;20168;-88
2022/03/31 11:43:05;;;;;;;7.67;3.17;;;6.50;97.40;;;;;;4996381;28;20220;-86
2022/03/31 11:45:48;;;;;;;6.03;3.13;;;6.50;97.50;;;;;;4997073;28;20172;-86
2022/03/31 11:48:13;;;;;;;5.10;3.00;;;6.50;97.10;;;;;;4996923;28;20230;-86
2022/03/31 11:50:52;;;;;;;6.60;3.03;;;6.50;97.40;;;;;;4996791;28;20204;-85
2022/03/31 11:53:25;;;;;;;8.20;3.70;;;6.60;97.40;;;;;;4995123;28;20184;-89
2022/03/31 11:56:15;;;;;;;5.83;3.57;;;6.70;97.40;;;;;;4996989;28;20191;-86
2022/03/31 11:58:45;;;;;;;9.43;3.10;;;6.70;97.00;;;;;;4996794;28;20258;-88
2022/03/31 12:01:11;;;;;;;8.63;3.40;;;6.60;97.40;;;;;;4996519;28;20193;-85
2022/03/31 12:03:39;;;;;;;7.70;3.23;;;6.70;97.60;;;;;;4996092;28;20172;-88
2022/03/31 12:06:06;;;;;;;10.40;3.70;;;6.70;96.60;;;;;;4996683;28;20180;-88
2022/03/31 12:08:33;;;;;;;6.47;3.67;;;6.70;97.30;;;;;;4996298;28;20176;-86
2022/03/31 12:10:59;;;;;;;5.03;3.40;;;6.70;97.00;;;;;;4996559;28;20203;-87
2022/03/31 12:13:26;;;;;;;6.30;3.37;;;6.80;97.00;;;;;;4995836;28;20176;-88
2022/03/31 12:16:06;;;;;;;5.13;2.90;;;6.80;96.30;;;;;;4996319;28;20255;-87
2022/03/31 12:18:34;;;;;;;4.37;3.00;;;6.70;95.90;;;;;;4995948;28;20507;-90
2022/03/31 12:21:02;;;;;;;8.17;3.20;;;6.70;96.20;;;;;;4996969;28;20164;-91
2022/03/31 12:23:28;;;;;;;5.73;3.13;;;6.70;96.50;;;;;;4996368;28;20623;-87
2022/03/31 12:25:54;;;;;;;7.20;3.10;;;6.80;96.00;;;;;;4995286;28;20180;-86
2022/03/31 12:28:23;;;;;;;4.47;3.10;;;6.90;96.00;;;;;;4995979;28;20578;-89
2022/03/31 12:30:56;;;;;;;7.17;3.47;;;6.80;95.00;;;;;;4996253;28;20235;-89
2022/03/31 12:33:25;;;;;;;6.00;3.20;;;6.90;95.00;;;;;;4994335;28;20194;-88
2022/03/31 12:36:09;;;;;;;5.43;3.57;;;6.90;95.10;;;;;;4996115;28;20259;-89
2022/03/31 12:38:45;;;;;;;5.70;3.43;;;7.00;95.10;;;;;;4995984;28;20574;-89
2022/03/31 12:41:21;;;;;;;5.90;3.43;;;7.00;94.10;;;;;;4994783;28;20230;-84
2022/03/31 12:44:10;;;;;;;6.63;3.03;;;6.90;92.90;;;;;;4995957;28;20658;-91
2022/03/31 12:46:43;;;;;;;6.00;3.30;;;6.70;93.30;;;;;;4990424;28;20735;-88
2022/03/31 12:49:13;;;;;;;4.83;2.80;;;6.70;93.50;;;;;;4995233;28;20204;-87
2022/03/31 12:51:44;;;;;;;5.17;3.23;;;6.60;93.10;;;;;;4995548;28;20253;-87
2022/03/31 12:54:34;;;;;;;5.00;2.77;;;6.60;93.00;;;;;;4995406;28;20258;-89
2022/03/31 12:57:17;;;;;;;5.50;3.17;;;6.70;93.20;;;;;;4994539;28;20694;-89
2022/03/31 12:59:55;;;;;;;4.90;2.63;;;6.70;93.50;;;;;;4995679;28;20242;-89
2022/03/31 13:02:21;;;;;;;6.07;2.80;;;6.80;93.60;;;;;;4995432;28;20539;-82